Terminal Aerodrome Forecast
Issued by NWS Charleston, WV

Home | Current Version | Previous Version | Text Only | Print | Product List | Glossary On
Versions: 1 2 3 4 5 6 7 8 9 10 11 12 13 14 15 16 17 18 19 20 21 22
000
FTUS41 KRLX 271100
TAFEKN
TAF
KEKN 271129Z 2712/2812 28007KT P6SM BKN025
      TEMPO 2712/2714 4SM -SN OVC018
     FM271600 30007KT P6SM OVC015
     FM271900 30007KT P6SM OVC025=

USA.gov is the U.S. government's official web portal to all federal, state and local government web resources and services.